createdAt,value
2023-08-25T00:02:13.025Z,21.43
2023-08-25T00:04:45.380Z,21.37
2023-08-25T00:07:14.848Z,21.32
2023-08-25T00:09:46.194Z,21.31
2023-08-25T00:12:14.257Z,21.30
2023-08-25T00:14:43.561Z,21.29
2023-08-25T00:17:12.132Z,21.29
2023-08-25T00:19:43.062Z,21.27
2023-08-25T00:22:11.503Z,21.25
2023-08-25T00:24:41.505Z,21.26
2023-08-25T00:27:13.674Z,21.22
2023-08-25T00:29:41.813Z,21.21
2023-08-25T00:32:09.708Z,21.20
2023-08-25T00:34:38.125Z,21.17
2023-08-25T00:37:09.491Z,21.15
2023-08-25T00:39:37.829Z,21.13
2023-08-25T00:42:06.479Z,21.13
2023-08-25T00:44:36.434Z,21.12
2023-08-25T00:47:05.571Z,21.08
2023-08-25T00:49:34.675Z,21.07
2023-08-25T00:52:04.767Z,21.07
2023-08-25T00:54:36.000Z,21.07
2023-08-25T00:57:05.489Z,21.05
2023-08-25T00:59:39.290Z,21.00
2023-08-25T01:02:08.170Z,20.96
2023-08-25T01:04:38.805Z,20.95
2023-08-25T01:07:07.897Z,20.94
2023-08-25T01:09:36.508Z,20.94
2023-08-25T01:12:09.442Z,20.94
2023-08-25T01:14:47.767Z,20.93
2023-08-25T01:17:20.265Z,20.93
2023-08-25T01:19:59.404Z,20.88
2023-08-25T01:22:34.975Z,20.86
2023-08-25T01:25:27.143Z,20.87
2023-08-25T01:27:57.719Z,20.88
2023-08-25T01:30:27.107Z,20.89
2023-08-25T01:32:56.213Z,20.89
2023-08-25T01:35:33.691Z,20.92
2023-08-25T01:38:09.177Z,20.87
2023-08-25T01:40:44.550Z,20.89
2023-08-25T01:43:23.021Z,20.94
2023-08-25T01:45:51.471Z,20.98
2023-08-25T01:48:21.920Z,21.03
2023-08-25T01:50:52.685Z,21.03
2023-08-25T01:53:22.487Z,21.02
2023-08-25T01:55:54.315Z,21.00
2023-08-25T01:58:22.310Z,21.00
2023-08-25T02:00:50.486Z,20.95
2023-08-25T02:03:19.283Z,20.97
2023-08-25T02:05:47.961Z,20.99
2023-08-25T02:08:20.808Z,20.99
2023-08-25T02:10:49.201Z,20.96
2023-08-25T02:13:20.553Z,20.90
2023-08-25T02:15:49.903Z,20.86
2023-08-25T02:18:18.066Z,20.99
2023-08-25T02:20:46.383Z,20.96
2023-08-25T02:23:16.638Z,21.20
2023-08-25T02:25:44.868Z,21.14
2023-08-25T02:28:13.498Z,21.02
2023-08-25T02:30:42.873Z,20.96
2023-08-25T02:33:11.344Z,21.08
2023-08-25T02:35:39.833Z,21.00
2023-08-25T02:38:11.355Z,20.93
2023-08-25T02:40:40.055Z,20.95
2023-08-25T02:43:09.671Z,20.93
2023-08-25T02:45:38.563Z,20.94
2023-08-25T02:48:09.004Z,20.89
2023-08-25T02:50:37.846Z,20.90
2023-08-25T02:53:06.543Z,20.89
2023-08-25T02:55:37.076Z,20.92
2023-08-25T02:58:06.018Z,21.04
2023-08-25T03:00:34.038Z,21.23
2023-08-25T03:03:05.514Z,21.06
2023-08-25T03:05:35.328Z,21.01
2023-08-25T03:08:04.300Z,20.92
2023-08-25T03:10:35.279Z,20.90
2023-08-25T03:13:06.050Z,20.91
2023-08-25T03:15:37.883Z,20.90
2023-08-25T03:18:10.622Z,20.90
2023-08-25T03:20:42.322Z,20.91
2023-08-25T03:23:10.344Z,20.91
2023-08-25T03:25:40.457Z,20.94
2023-08-25T03:28:08.380Z,20.88
2023-08-25T03:30:36.734Z,21.04
2023-08-25T03:33:06.338Z,20.94
2023-08-25T03:35:35.745Z,20.88
2023-08-25T03:38:07.172Z,20.88
2023-08-25T03:40:35.925Z,20.83
2023-08-25T03:43:04.681Z,20.79
2023-08-25T03:45:33.277Z,20.82
2023-08-25T03:48:03.786Z,20.80
2023-08-25T03:50:32.083Z,20.82
2023-08-25T03:53:00.323Z,20.87
2023-08-25T03:55:32.532Z,20.85
2023-08-25T03:58:03.093Z,20.90
2023-08-25T04:00:31.603Z,20.95
2023-08-25T04:02:59.769Z,20.95
2023-08-25T04:05:28.240Z,20.96
2023-08-25T04:07:57.155Z,20.99
2023-08-25T04:10:26.166Z,20.96
2023-08-25T04:12:55.708Z,20.95
2023-08-25T04:15:23.963Z,20.96
2023-08-25T04:17:54.792Z,20.97
2023-08-25T04:20:25.305Z,20.99
2023-08-25T04:22:53.932Z,20.95
2023-08-25T04:25:27.025Z,20.95
2023-08-25T04:27:56.882Z,20.96
2023-08-25T04:30:27.958Z,21.00
2023-08-25T04:32:59.368Z,21.01
2023-08-25T04:35:31.594Z,21.04
2023-08-25T04:38:03.453Z,21.09
2023-08-25T04:40:31.867Z,21.12
2023-08-25T04:43:01.160Z,21.14
2023-08-25T04:45:29.569Z,21.19
2023-08-25T04:47:58.392Z,21.25
2023-08-25T04:50:27.242Z,21.30
2023-08-25T04:52:56.607Z,21.37
2023-08-25T04:55:27.207Z,21.41
2023-08-25T04:57:56.978Z,21.49
2023-08-25T05:00:26.361Z,21.41
2023-08-25T05:02:55.460Z,21.48
2023-08-25T05:05:23.656Z,21.61
2023-08-25T05:07:55.849Z,21.51
2023-08-25T05:10:24.114Z,21.52
2023-08-25T05:12:52.510Z,21.54
2023-08-25T05:15:21.284Z,21.42
2023-08-25T05:17:52.275Z,21.30
2023-08-25T05:20:22.074Z,21.14
2023-08-25T05:22:52.093Z,21.18
2023-08-25T05:25:22.467Z,21.15
2023-08-25T05:27:51.093Z,21.17
2023-08-25T05:30:20.492Z,21.19
2023-08-25T05:32:51.927Z,21.21
2023-08-25T05:35:41.197Z,21.23
2023-08-25T05:38:11.728Z,21.23
2023-08-25T05:40:40.618Z,21.34
2023-08-25T05:43:08.853Z,21.31
2023-08-25T05:45:36.844Z,21.23
2023-08-25T05:48:08.183Z,21.21
2023-08-25T05:50:37.706Z,21.13
2023-08-25T05:53:06.219Z,21.21
2023-08-25T05:55:35.818Z,21.20
2023-08-25T05:58:04.064Z,21.19
2023-08-25T06:00:32.515Z,21.16
2023-08-25T06:03:00.772Z,21.36
2023-08-25T06:05:30.936Z,21.49
2023-08-25T06:07:58.942Z,21.33
2023-08-25T06:10:29.164Z,21.34
2023-08-25T06:12:58.409Z,21.29
2023-08-25T06:15:27.702Z,21.29
2023-08-25T06:17:56.546Z,21.28
2023-08-25T06:20:25.367Z,21.30
2023-08-25T06:25:40.546Z,21.32
2023-08-25T06:28:10.301Z,21.46
2023-08-25T06:30:38.985Z,21.36
2023-08-25T06:33:09.749Z,21.32
2023-08-25T06:35:40.568Z,21.35
2023-08-25T06:38:11.132Z,21.40
2023-08-25T06:40:39.920Z,21.43
2023-08-25T06:43:08.110Z,21.54
2023-08-25T06:45:36.334Z,21.63
2023-08-25T06:48:04.965Z,21.68
2023-08-25T06:50:35.225Z,21.77
2023-08-25T06:53:05.725Z,21.86
2023-08-25T06:55:36.719Z,21.93
2023-08-25T06:58:07.030Z,22.00
2023-08-25T07:00:37.429Z,22.08
2023-08-25T07:03:05.845Z,22.17
2023-08-25T07:05:39.144Z,22.25
2023-08-25T07:08:09.037Z,22.34
2023-08-25T07:10:39.902Z,22.46
2023-08-25T07:13:11.230Z,22.55
2023-08-25T07:15:39.536Z,22.63
2023-08-25T07:18:08.733Z,22.71
2023-08-25T07:20:37.448Z,22.77
2023-08-25T07:23:06.078Z,22.81
2023-08-25T07:25:35.771Z,22.83
2023-08-25T07:28:08.969Z,22.86
2023-08-25T07:30:40.151Z,22.93
2023-08-25T07:33:10.153Z,22.84
2023-08-25T07:35:38.352Z,22.84
2023-08-25T07:38:06.736Z,22.88
2023-08-25T07:40:38.274Z,22.90
2023-08-25T07:43:10.339Z,22.94
2023-08-25T07:45:39.914Z,22.97
2023-08-25T07:48:09.465Z,22.95
2023-08-25T07:50:37.363Z,22.96
2023-08-25T07:53:06.124Z,22.96
2023-08-25T07:55:36.062Z,23.04
2023-08-25T07:58:04.594Z,23.05
2023-08-25T08:00:34.414Z,23.14
2023-08-25T08:03:12.565Z,23.25
2023-08-25T08:05:41.436Z,23.30
2023-08-25T08:08:11.094Z,23.35
2023-08-25T08:10:39.796Z,23.31
2023-08-25T08:13:07.854Z,23.28
2023-08-25T08:15:37.517Z,23.23
2023-08-25T08:18:06.150Z,23.18
2023-08-25T08:20:35.971Z,23.22
2023-08-25T08:23:07.115Z,23.29
2023-08-25T08:25:38.309Z,23.38
2023-08-25T08:28:08.990Z,23.61
2023-08-25T08:30:38.953Z,23.55
2023-08-25T08:33:07.926Z,23.60
2023-08-25T08:35:36.244Z,23.71
2023-08-25T08:38:06.269Z,23.69
2023-08-25T08:40:34.150Z,23.86
2023-08-25T08:43:04.840Z,23.93
2023-08-25T08:45:36.371Z,23.94
2023-08-25T08:48:08.886Z,24.12
2023-08-25T08:50:38.239Z,24.19
2023-08-25T08:53:08.967Z,24.20
2023-08-25T08:55:40.562Z,24.24
2023-08-25T08:58:08.714Z,24.27
2023-08-25T09:00:37.842Z,24.21
2023-08-25T09:03:14.241Z,24.28
2023-08-25T09:05:45.360Z,24.32
2023-08-25T09:08:14.577Z,24.56
2023-08-25T09:10:42.436Z,24.69
2023-08-25T09:13:15.429Z,25.02
2023-08-25T09:15:44.319Z,25.21
2023-08-25T09:18:14.159Z,25.18
2023-08-25T09:20:42.492Z,25.23
2023-08-25T09:23:10.675Z,24.87
2023-08-25T09:25:43.582Z,24.86
2023-08-25T09:28:11.641Z,25.02
2023-08-25T09:30:42.039Z,25.14
2023-08-25T09:33:11.993Z,25.21
2023-08-25T09:35:44.496Z,25.43
2023-08-25T09:38:22.948Z,25.59
2023-08-25T09:40:51.780Z,25.74
2023-08-25T09:43:30.771Z,25.87
2023-08-25T09:46:00.366Z,25.95
2023-08-25T09:48:33.616Z,26.04
2023-08-25T09:51:03.523Z,26.18
2023-08-25T09:53:34.368Z,26.24
2023-08-25T09:56:07.502Z,26.26
2023-08-25T09:58:36.926Z,26.26
2023-08-25T10:01:07.438Z,26.50
2023-08-25T10:03:36.821Z,26.50
2023-08-25T10:06:07.090Z,26.54
2023-08-25T10:08:35.857Z,26.61
2023-08-25T10:11:05.595Z,26.61
2023-08-25T10:13:35.425Z,26.73
2023-08-25T10:16:06.371Z,26.85
2023-08-25T10:18:41.439Z,27.01
2023-08-25T10:21:16.204Z,27.11
2023-08-25T10:23:49.044Z,27.21
2023-08-25T10:26:18.427Z,27.26
2023-08-25T10:28:47.842Z,27.29
2023-08-25T10:31:16.425Z,27.35
2023-08-25T10:33:48.142Z,27.37
2023-08-25T10:36:23.540Z,27.42
2023-08-25T10:39:11.064Z,27.36
2023-08-25T10:41:44.519Z,27.47
2023-08-25T10:44:23.457Z,27.61
2023-08-25T10:46:53.714Z,27.71
2023-08-25T10:49:22.058Z,27.83
2023-08-25T10:51:52.042Z,27.92
2023-08-25T10:54:24.717Z,27.95
2023-08-25T10:56:53.829Z,27.85
2023-08-25T10:59:22.809Z,27.91
2023-08-25T11:02:01.115Z,27.92
2023-08-25T11:04:31.583Z,27.83
2023-08-25T11:07:01.793Z,27.53
2023-08-25T11:09:34.998Z,27.43
2023-08-25T11:12:07.324Z,27.41
2023-08-25T11:14:38.290Z,27.43
2023-08-25T11:17:08.405Z,27.49
2023-08-25T11:19:39.406Z,27.49
2023-08-25T11:22:12.122Z,27.53
2023-08-25T11:24:41.077Z,27.61
2023-08-25T11:27:10.998Z,27.77
2023-08-25T11:29:45.995Z,27.83
2023-08-25T11:32:17.449Z,27.90
2023-08-25T11:34:49.190Z,27.87
2023-08-25T11:37:25.181Z,28.02
2023-08-25T11:39:53.871Z,28.12
2023-08-25T11:42:23.084Z,28.17
2023-08-25T11:44:54.506Z,28.09
2023-08-25T11:47:23.520Z,28.04
2023-08-25T11:49:51.998Z,27.88
2023-08-25T11:52:21.820Z,27.85
2023-08-25T11:54:52.819Z,27.82
2023-08-25T11:57:20.990Z,27.96
2023-08-25T11:59:52.220Z,27.96
2023-08-25T12:02:23.804Z,27.90
2023-08-25T12:04:59.624Z,27.96
2023-08-25T12:07:31.727Z,27.98
2023-08-25T12:10:00.881Z,27.96
2023-08-25T12:12:33.289Z,27.89
2023-08-25T12:15:07.006Z,27.83
2023-08-25T12:17:43.482Z,27.64
2023-08-25T12:20:17.622Z,27.64
2023-08-25T12:22:55.603Z,27.66
2023-08-25T12:25:24.582Z,27.65
2023-08-25T12:27:54.235Z,27.80
2023-08-25T12:30:26.777Z,28.03
2023-08-25T12:32:57.278Z,28.09
2023-08-25T12:35:25.546Z,28.23
2023-08-25T12:37:56.394Z,28.05
2023-08-25T12:40:25.929Z,27.97
2023-08-25T12:42:57.156Z,27.83
2023-08-25T12:45:26.460Z,27.85
2023-08-25T12:47:54.749Z,27.90
2023-08-25T12:50:22.946Z,27.83
2023-08-25T12:52:50.999Z,27.83
2023-08-25T12:55:23.305Z,27.79
2023-08-25T12:57:51.965Z,27.75
2023-08-25T13:00:21.518Z,27.63
2023-08-25T13:02:53.781Z,27.55
2023-08-25T13:05:29.186Z,27.52
2023-08-25T13:07:59.075Z,27.57
2023-08-25T13:10:29.214Z,27.56
2023-08-25T13:12:57.519Z,27.31
2023-08-25T13:15:29.206Z,27.20
2023-08-25T13:17:57.798Z,27.21
2023-08-25T13:20:26.527Z,27.52
2023-08-25T13:22:55.522Z,27.74
2023-08-25T13:25:24.870Z,28.03
2023-08-25T13:27:58.160Z,28.13
2023-08-25T13:30:26.786Z,28.09
2023-08-25T13:32:55.427Z,27.94
2023-08-25T13:35:25.996Z,28.01
2023-08-25T13:37:57.929Z,28.08
2023-08-25T13:40:27.994Z,28.30
2023-08-25T13:42:57.555Z,28.52
2023-08-25T13:45:25.751Z,28.67
2023-08-25T13:47:55.993Z,28.67
2023-08-25T13:50:24.736Z,28.67
2023-08-25T13:52:52.991Z,28.69
2023-08-25T13:55:22.127Z,28.82
2023-08-25T13:57:53.276Z,29.16
2023-08-25T14:00:25.445Z,29.52
2023-08-25T14:02:53.460Z,29.65
2023-08-25T14:05:22.416Z,29.67
2023-08-25T14:07:52.929Z,29.63
2023-08-25T14:10:23.914Z,29.44
2023-08-25T14:12:51.870Z,29.20
2023-08-25T14:15:21.341Z,28.84
2023-08-25T14:17:50.988Z,28.60
2023-08-25T14:20:20.047Z,28.66
2023-08-25T14:22:47.877Z,28.76
2023-08-25T14:25:16.760Z,28.87
2023-08-25T14:27:47.867Z,29.11
2023-08-25T14:30:16.050Z,29.15
2023-08-25T14:32:47.103Z,29.14
2023-08-25T14:35:18.127Z,28.95
2023-08-25T14:37:48.036Z,28.85
2023-08-25T14:40:16.145Z,28.74
2023-08-25T14:42:47.391Z,28.73
2023-08-25T14:45:18.707Z,28.63
2023-08-25T14:47:47.555Z,28.70
2023-08-25T14:50:20.070Z,28.51
2023-08-25T14:52:48.301Z,28.50
2023-08-25T14:55:16.671Z,28.38
2023-08-25T14:57:45.691Z,28.42
2023-08-25T15:00:15.259Z,28.43
2023-08-25T15:02:43.660Z,28.74
2023-08-25T15:05:12.849Z,29.43
2023-08-25T15:07:42.733Z,30.10
2023-08-25T15:10:13.898Z,30.08
2023-08-25T15:12:50.153Z,30.41
2023-08-25T15:15:18.514Z,30.34
2023-08-25T15:17:51.898Z,30.55
2023-08-25T15:20:20.438Z,30.73
2023-08-25T15:22:51.607Z,31.15
2023-08-25T15:25:21.245Z,31.09
2023-08-25T15:27:51.393Z,31.37
2023-08-25T15:30:19.991Z,31.62
2023-08-25T15:32:50.579Z,31.72
2023-08-25T15:35:22.173Z,31.84
2023-08-25T15:37:52.970Z,31.92
2023-08-25T15:40:22.161Z,32.29
2023-08-25T15:42:50.308Z,32.26
2023-08-25T15:45:20.236Z,32.30
2023-08-25T15:47:51.529Z,32.64
2023-08-25T15:50:19.653Z,32.79
2023-08-25T15:52:50.219Z,33.20
2023-08-25T15:55:21.478Z,33.25
2023-08-25T15:57:49.873Z,33.36
2023-08-25T16:00:19.243Z,33.03
2023-08-25T16:02:48.149Z,33.03
2023-08-25T16:05:16.114Z,32.47
2023-08-25T16:07:44.377Z,32.41
2023-08-25T16:10:15.142Z,32.60
2023-08-25T16:12:46.852Z,33.01
2023-08-25T16:15:14.859Z,33.20
2023-08-25T16:17:43.231Z,32.85
2023-08-25T16:20:13.073Z,32.75
2023-08-25T16:22:41.030Z,33.06
2023-08-25T16:25:13.897Z,33.49
2023-08-25T16:27:48.133Z,33.93
2023-08-25T16:30:16.834Z,34.12
2023-08-25T16:32:44.981Z,34.40
2023-08-25T16:35:16.240Z,34.00
2023-08-25T16:37:46.085Z,33.86
2023-08-25T16:40:14.020Z,32.77
2023-08-25T16:42:42.390Z,31.63
2023-08-25T16:45:12.532Z,31.10
2023-08-25T16:47:42.887Z,30.71
2023-08-25T16:50:13.288Z,30.38
2023-08-25T16:52:41.507Z,29.85
2023-08-25T16:55:09.979Z,29.57
2023-08-25T16:57:39.390Z,29.33
2023-08-25T17:00:11.639Z,29.41
2023-08-25T17:02:41.671Z,29.14
2023-08-25T17:05:11.769Z,29.22
2023-08-25T17:07:48.480Z,29.15
2023-08-25T17:10:17.434Z,29.14
2023-08-25T17:12:48.437Z,29.25
2023-08-25T17:15:23.275Z,29.24
2023-08-25T17:17:55.358Z,29.31
2023-08-25T17:20:23.626Z,29.38
2023-08-25T17:22:52.358Z,29.26
2023-08-25T17:25:20.639Z,29.09
2023-08-25T17:27:49.128Z,28.95
2023-08-25T17:30:18.326Z,28.57
2023-08-25T17:32:47.447Z,28.49
2023-08-25T17:35:17.308Z,28.20
2023-08-25T17:37:45.532Z,28.08
2023-08-25T17:40:13.949Z,27.83
2023-08-25T17:42:42.218Z,27.71
2023-08-25T17:45:13.158Z,27.72
2023-08-25T17:47:42.063Z,27.55
2023-08-25T17:50:10.601Z,27.47
2023-08-25T17:52:39.902Z,27.46
2023-08-25T17:55:09.128Z,27.35
2023-08-25T17:57:38.660Z,27.26
2023-08-25T18:00:08.389Z,27.14
2023-08-25T18:02:41.903Z,27.13
2023-08-25T18:05:11.170Z,26.87
2023-08-25T18:07:40.726Z,26.75
2023-08-25T18:10:10.045Z,26.82
2023-08-25T18:12:40.022Z,26.64
2023-08-25T18:15:08.930Z,26.50
2023-08-25T18:17:37.039Z,26.40
2023-08-25T18:20:05.659Z,26.33
2023-08-25T18:22:33.932Z,26.29
2023-08-25T18:25:06.306Z,26.18
2023-08-25T18:27:34.589Z,26.11
2023-08-25T18:30:06.553Z,26.02
2023-08-25T18:32:35.360Z,25.91
2023-08-25T18:35:03.691Z,25.83
2023-08-25T18:37:31.986Z,25.73
2023-08-25T18:39:59.937Z,25.69
2023-08-25T18:42:29.697Z,25.62
2023-08-25T18:44:57.707Z,25.59
2023-08-25T18:47:26.097Z,25.67
2023-08-25T18:49:54.525Z,25.52
2023-08-25T18:52:25.157Z,25.44
2023-08-25T18:54:53.304Z,25.34
2023-08-25T18:57:26.520Z,25.28
2023-08-25T18:59:56.227Z,25.20
2023-08-25T19:02:25.250Z,25.15
2023-08-25T19:04:53.630Z,25.10
2023-08-25T19:07:21.602Z,25.09
2023-08-25T19:09:50.900Z,25.05
2023-08-25T19:12:18.838Z,25.03
2023-08-25T19:14:47.017Z,25.02
2023-08-25T19:17:16.591Z,25.03
2023-08-25T19:19:44.899Z,24.98
2023-08-25T19:22:12.853Z,24.93
2023-08-25T19:24:41.001Z,24.88
2023-08-25T19:27:10.136Z,24.86
2023-08-25T19:29:47.850Z,24.88
2023-08-25T19:32:17.058Z,24.88
2023-08-25T19:34:47.046Z,24.87
2023-08-25T19:37:16.819Z,24.84
2023-08-25T19:39:44.904Z,24.80
2023-08-25T19:42:12.898Z,24.81
2023-08-25T19:44:41.696Z,24.77
2023-08-25T19:47:09.833Z,24.72
2023-08-25T19:49:39.816Z,24.68
2023-08-25T19:52:08.140Z,24.67
2023-08-25T19:54:36.548Z,24.64
2023-08-25T19:57:07.297Z,24.62
2023-08-25T19:59:36.143Z,24.59
2023-08-25T20:02:04.555Z,24.54
2023-08-25T20:04:33.188Z,24.52
2023-08-25T20:07:06.006Z,24.54
2023-08-25T20:09:38.417Z,24.52
2023-08-25T20:12:10.204Z,24.48
2023-08-25T20:14:40.701Z,24.46
2023-08-25T20:17:09.138Z,24.40
2023-08-25T20:19:39.599Z,24.36
2023-08-25T20:22:09.245Z,24.41
2023-08-25T20:24:37.430Z,24.41
2023-08-25T20:27:06.010Z,24.40
2023-08-25T20:29:35.495Z,24.41
2023-08-25T20:32:03.834Z,24.43
2023-08-25T20:34:34.670Z,24.45
2023-08-25T20:37:04.977Z,24.47
2023-08-25T20:39:34.794Z,24.47
2023-08-25T20:42:03.190Z,24.42
2023-08-25T20:44:37.195Z,24.41
2023-08-25T20:47:07.541Z,24.42
2023-08-25T20:49:38.382Z,24.43
2023-08-25T20:52:10.869Z,24.42
2023-08-25T20:54:43.835Z,24.39
2023-08-25T20:57:21.603Z,24.34
2023-08-25T20:59:52.228Z,24.32
2023-08-25T21:02:22.034Z,24.27
2023-08-25T21:04:53.577Z,24.24
2023-08-25T21:07:23.268Z,24.19
2023-08-25T21:09:56.842Z,24.20
2023-08-25T21:12:25.714Z,24.21
2023-08-25T21:14:56.787Z,24.26
2023-08-25T21:17:25.334Z,24.23
2023-08-25T21:19:53.580Z,24.17
2023-08-25T21:22:28.043Z,24.25
2023-08-25T21:24:59.919Z,24.25
2023-08-25T21:27:35.246Z,23.94
2023-08-25T21:30:14.612Z,23.84
2023-08-25T21:32:44.241Z,23.74
2023-08-25T21:35:14.096Z,23.73
2023-08-25T21:37:43.107Z,23.67
2023-08-25T21:40:14.059Z,23.56
2023-08-25T21:42:45.634Z,23.42
2023-08-25T21:45:21.551Z,23.33
2023-08-25T21:47:54.831Z,23.32
2023-08-25T21:50:27.594Z,23.36
2023-08-25T21:53:01.297Z,23.35
2023-08-25T21:55:33.340Z,23.42
2023-08-25T21:58:07.831Z,23.37
2023-08-25T22:00:40.509Z,23.45
2023-08-25T22:03:13.152Z,23.51
2023-08-25T22:05:44.015Z,23.41
2023-08-25T22:08:18.002Z,23.45
2023-08-25T22:10:47.602Z,23.38
2023-08-25T22:13:26.928Z,23.24
2023-08-25T22:16:02.795Z,23.20
2023-08-25T22:18:36.160Z,23.16
2023-08-25T22:21:06.797Z,23.09
2023-08-25T22:23:43.925Z,23.06
2023-08-25T22:26:15.414Z,23.03
2023-08-25T22:28:47.988Z,22.98
2023-08-25T22:31:20.607Z,22.95
2023-08-25T22:36:23.305Z,22.90
2023-08-25T22:38:58.094Z,22.89
2023-08-25T22:41:27.878Z,22.88
2023-08-25T22:43:57.377Z,22.85
2023-08-25T22:46:26.817Z,22.84
2023-08-25T22:48:55.954Z,22.82
2023-08-25T22:51:24.542Z,22.80
2023-08-25T22:53:58.232Z,22.82
2023-08-25T22:56:28.961Z,22.79
2023-08-25T22:58:57.340Z,22.80
2023-08-25T23:01:27.062Z,22.79
2023-08-25T23:03:55.063Z,22.79
2023-08-25T23:06:28.428Z,22.81
2023-08-25T23:09:00.622Z,22.82
2023-08-25T23:11:33.025Z,22.83
2023-08-25T23:14:03.914Z,22.78
2023-08-25T23:16:33.776Z,22.65
2023-08-25T23:19:06.460Z,22.66
2023-08-25T23:21:34.851Z,22.49
2023-08-25T23:24:06.653Z,22.52
2023-08-25T23:26:39.611Z,22.62
2023-08-25T23:29:08.882Z,22.46
2023-08-25T23:31:40.808Z,22.40
2023-08-25T23:34:11.567Z,22.36
2023-08-25T23:36:40.433Z,22.37
2023-08-25T23:39:12.598Z,22.62
2023-08-25T23:41:46.745Z,22.48
2023-08-25T23:44:16.437Z,22.49
2023-08-25T23:46:53.401Z,22.56
2023-08-25T23:49:31.320Z,22.37
2023-08-25T23:52:05.393Z,22.24
2023-08-25T23:54:37.851Z,22.12
2023-08-25T23:57:09.182Z,22.04
2023-08-25T23:59:40.409Z,21.99
